Aeroporto :
LOGIN :

Iscrizione | Disclaimer

   EN    FR    IT 

 










Sommario :    VFR   VFR Marginale   IFR   IFR Intensivo   IFR Molto Intensivo
Visibilità : 
Base nubi : 
>= 8 km
>= 3000ft
5 / 8 km
1000 / 3000 ft
1500m / 5 km
500 / 1000 ft
800 / 1500m
200 / 500 ft
< 800m
< 200 ft
Simboli :   Temporali  Nebbia  Neve Forte  Precipitazioni Forti  Vento > 20 kt
SIGMETs :   Varie  Temporali  Ghiacco  Turbolenza  Onda orograficha  Ceneri Vulcaniche






- Altitudine del aeroporto : 844 ft
- Codice IATA : OSR


LKMT - Ostrava-Mosnov

ULTIMO METAR :
  • 120600Z 27007KT CAVOK 08/04 Q1010 NOSIG

METARs OBSOLETI :
  • 120530Z 24007KT CAVOK 08/04 Q1010 NOSIG
  • 120500Z 24005KT CAVOK 07/04 Q1010 NOSIG
  • 120430Z 26007KT CAVOK 07/04 Q1010 NOSIG
  • 120400Z 27007KT CAVOK 07/04 Q1010 NOSIG
  • 120330Z VRB03KT CAVOK 08/04 Q1009 NOSIG

TAF TAF LKMT
Valido dal 12 a 06 ore il 13 a 12 ore UTC


120500Z 1206/1312 23008KT 9999 BKN045
BECMG 1212/1214 04006KT 6000 RA BKN020
TEMPO 1214/1306 34008KT 4000 RA BR BKN010
PROB30
TEMPO 1214/1306 2000 RA BR OVC005



MetMap, La meteo Aeronautica in un colpo d'occhio ! - Copyright ORBIFLY Dicembre 2007 - Disclaimer

ORBIFLY MET'MAP TEAM :

Programmazione e sviluppo : Alexandra Zaïnal
Concezione e sviluppo : Baudouin d'Aumeries
Co-Programmazione e sviluppo : Marc-Olivier Méhu
Supporto tecnico e logistico : Manuel Goepfert
Aiuto per la traduzione : Arnaldo La Scala

Contatto : metmap@orbifly.com




FONTI E CREDITI :

   NOAA